Time;durP1;ratioP1;P1;durP2;ratioP2;P2;SDS_P1;SDS_P2;PMS_P1;PMS_P2;Temp;Humidity;BMP_temperature;BMP_pressure;BME280_temperature;BME280_humidity;BME280_pressure;Samples;Min_cycle;Max_cycle;Signal;HPM_P1;HPM_P2
2024/01/02 00:01:47;;;;;;;3.80;2.30;;;;;;;;;;4928476;29;20036;-84
2024/01/02 00:04:13;;;;;;;3.75;2.20;;;;;;;;;;4927911;29;20067;-84
2024/01/02 00:06:38;;;;;;;4.70;2.85;;;;;;;;;;4927545;29;20040;-84
2024/01/02 00:09:04;;;;;;;4.57;2.50;;;;;;;;;;4926480;29;20410;-83
2024/01/02 00:11:29;;;;;;;4.60;2.35;;;;;;;;;;4930919;29;20051;-84
2024/01/02 00:13:55;;;;;;;4.47;2.63;;;;;;;;;;4930888;29;20126;-84
2024/01/02 00:16:20;;;;;;;5.13;2.80;;;;;;;;;;4924380;29;20039;-84
2024/01/02 00:18:46;;;;;;;4.85;2.63;;;;;;;;;;4923629;29;20126;-84
2024/01/02 00:21:11;;;;;;;5.35;2.70;;;;;;;;;;4925484;29;20076;-83
2024/01/02 00:23:37;;;;;;;4.75;2.47;;;;;;;;;;4922674;29;20036;-84
2024/01/02 00:26:02;;;;;;;4.13;2.10;;;;;;;;;;4923177;29;20032;-83
2024/01/02 00:28:28;;;;;;;3.50;2.25;;;;;;;;;;4927174;29;20040;-84
2024/01/02 00:30:53;;;;;;;3.58;2.03;;;;;;;;;;4926030;29;20059;-84
2024/01/02 00:33:19;;;;;;;4.85;2.33;;;;;;;;;;4927581;29;20062;-84
2024/01/02 00:35:44;;;;;;;4.40;2.22;;;;;;;;;;4906422;29;20521;-84
2024/01/02 00:38:10;;;;;;;4.43;2.28;;;;;;;;;;4924637;29;20039;-84
2024/01/02 00:40:35;;;;;;;3.35;2.08;;;;;;;;;;4924517;29;20490;-85
2024/01/02 00:43:01;;;;;;;3.70;2.20;;;;;;;;;;4924398;29;20038;-84
2024/01/02 00:45:27;;;;;;;4.75;2.20;;;;;;;;;;4930793;29;20414;-83
2024/01/02 00:47:53;;;;;;;5.90;2.63;;;;;;;;;;4922686;29;20076;-84
2024/01/02 00:50:20;;;;;;;3.60;2.45;;;;;;;;;;4924957;29;20035;-84
2024/01/02 00:52:45;;;;;;;4.57;2.30;;;;;;;;;;4925159;29;20044;-84
2024/01/02 00:55:11;;;;;;;3.83;2.30;;;;;;;;;;4926000;29;20078;-85
2024/01/02 00:57:36;;;;;;;4.20;2.60;;;;;;;;;;4922898;29;20502;-84
2024/01/02 01:00:04;;;;;;;4.40;2.30;;;;;;;;;;4908914;29;20040;-84
2024/01/02 01:02:30;;;;;;;4.25;2.38;;;;;;;;;;4930712;29;20534;-84
2024/01/02 01:04:55;;;;;;;3.33;1.98;;;;;;;;;;4928973;29;20119;-83
2024/01/02 01:07:21;;;;;;;4.95;2.70;;;;;;;;;;4926200;29;20024;-84
2024/01/02 01:09:46;;;;;;;4.13;2.30;;;;;;;;;;4927306;29;20058;-84
2024/01/02 01:12:12;;;;;;;4.88;2.50;;;;;;;;;;4926902;29;20027;-84
2024/01/02 01:14:37;;;;;;;4.30;2.33;;;;;;;;;;4923434;29;20106;-84
2024/01/02 01:17:05;;;;;;;5.50;2.20;;;;;;;;;;4929370;29;20455;-84
2024/01/02 01:19:31;;;;;;;3.70;2.40;;;;;;;;;;4942285;29;20032;-84
2024/01/02 01:21:57;;;;;;;3.58;2.00;;;;;;;;;;4930268;29;20095;-85
2024/01/02 01:24:22;;;;;;;3.60;2.30;;;;;;;;;;4931248;29;20087;-84
2024/01/02 01:26:52;;;;;;;3.45;2.20;;;;;;;;;;4934940;29;20248;-85
2024/01/02 01:29:22;;;;;;;3.38;2.08;;;;;;;;;;4948630;29;20482;-84
2024/01/02 01:31:48;;;;;;;3.85;2.10;;;;;;;;;;4933197;29;20042;-84
2024/01/02 01:34:14;;;;;;;3.92;1.98;;;;;;;;;;4939012;29;20039;-84
2024/01/02 01:36:40;;;;;;;3.65;2.00;;;;;;;;;;4936018;29;20043;-84
2024/01/02 01:39:06;;;;;;;3.67;2.03;;;;;;;;;;4935900;29;20036;-85
2024/01/02 01:41:32;;;;;;;3.40;1.90;;;;;;;;;;4931534;29;20036;-84
2024/01/02 01:43:58;;;;;;;4.50;2.08;;;;;;;;;;4934470;29;20047;-84
2024/01/02 01:46:29;;;;;;;3.97;1.90;;;;;;;;;;4927262;29;20032;-84
2024/01/02 01:48:55;;;;;;;3.28;1.90;;;;;;;;;;4932273;29;20644;-84
2024/01/02 01:51:22;;;;;;;3.40;1.77;;;;;;;;;;4933861;29;20031;-85
2024/01/02 01:53:48;;;;;;;3.50;1.80;;;;;;;;;;4937612;29;20042;-84
2024/01/02 01:56:14;;;;;;;3.22;1.95;;;;;;;;;;4932740;29;20090;-85
2024/01/02 01:58:40;;;;;;;3.75;1.85;;;;;;;;;;4934241;29;20056;-85
2024/01/02 02:01:06;;;;;;;3.22;2.00;;;;;;;;;;4928488;29;20507;-84
2024/01/02 02:03:32;;;;;;;3.22;1.80;;;;;;;;;;4930866;29;20102;-86
2024/01/02 02:05:58;;;;;;;3.50;1.80;;;;;;;;;;4933448;29;20094;-85
2024/01/02 02:08:23;;;;;;;2.95;1.70;;;;;;;;;;4930699;29;20470;-84
2024/01/02 02:10:49;;;;;;;3.45;1.80;;;;;;;;;;4930549;29;20048;-84
2024/01/02 02:13:15;;;;;;;4.05;1.67;;;;;;;;;;4931555;29;20040;-84
2024/01/02 02:15:42;;;;;;;3.33;1.73;;;;;;;;;;4927407;29;20080;-84
2024/01/02 02:18:10;;;;;;;3.30;1.73;;;;;;;;;;4933212;29;20119;-85
2024/01/02 02:20:36;;;;;;;3.38;1.80;;;;;;;;;;4931228;29;20546;-84
2024/01/02 02:23:02;;;;;;;3.22;1.70;;;;;;;;;;4930503;29;20039;-84
2024/01/02 02:25:27;;;;;;;2.55;1.70;;;;;;;;;;4931947;29;20118;-83
2024/01/02 02:27:54;;;;;;;4.70;1.75;;;;;;;;;;4926053;29;20040;-83
2024/01/02 02:30:19;;;;;;;2.72;1.83;;;;;;;;;;4931966;29;20118;-84
2024/01/02 02:32:45;;;;;;;2.38;1.60;;;;;;;;;;4927972;29;20064;-85
2024/01/02 02:35:10;;;;;;;3.92;1.92;;;;;;;;;;4932472;29;20068;-84
2024/01/02 02:37:36;;;;;;;3.75;2.03;;;;;;;;;;4935275;29;20078;-84
2024/01/02 02:40:03;;;;;;;4.85;2.22;;;;;;;;;;4927848;29;20496;-84
2024/01/02 02:42:28;;;;;;;5.63;2.05;;;;;;;;;;4932281;29;20079;-83
2024/01/02 02:44:54;;;;;;;3.80;1.80;;;;;;;;;;4930548;29;20414;-84
2024/01/02 02:47:22;;;;;;;4.40;2.00;;;;;;;;;;4928609;29;20066;-84
2024/01/02 02:49:49;;;;;;;2.55;1.63;;;;;;;;;;4926906;29;20124;-84
2024/01/02 02:52:15;;;;;;;2.95;1.67;;;;;;;;;;4924346;29;20046;-84
2024/01/02 02:54:41;;;;;;;2.85;1.60;;;;;;;;;;4931376;29;20032;-84
2024/01/02 02:57:06;;;;;;;5.63;1.77;;;;;;;;;;4924822;29;20040;-84
2024/01/02 02:59:32;;;;;;;3.22;1.70;;;;;;;;;;4929775;29;20036;-85
2024/01/02 03:01:57;;;;;;;2.70;1.73;;;;;;;;;;4927732;29;20418;-84
2024/01/02 03:04:23;;;;;;;3.40;1.75;;;;;;;;;;4928423;29;20148;-84
2024/01/02 03:06:49;;;;;;;5.10;1.90;;;;;;;;;;4926973;29;20055;-84
2024/01/02 03:09:14;;;;;;;3.75;2.08;;;;;;;;;;4928600;29;20127;-84
2024/01/02 03:11:40;;;;;;;2.95;1.85;;;;;;;;;;4926599;29;20043;-84
2024/01/02 03:14:05;;;;;;;2.92;1.80;;;;;;;;;;4929432;29;20084;-84
2024/01/02 03:16:31;;;;;;;3.47;2.00;;;;;;;;;;4929682;29;20600;-84
2024/01/02 03:18:56;;;;;;;4.20;1.80;;;;;;;;;;4931053;29;20036;-84
2024/01/02 03:21:27;;;;;;;3.15;1.63;;;;;;;;;;4935204;29;20063;-84
2024/01/02 03:23:54;;;;;;;2.60;1.80;;;;;;;;;;4937148;29;20042;-85
2024/01/02 03:26:19;;;;;;;3.30;1.88;;;;;;;;;;4930968;29;20032;-84
2024/01/02 03:28:45;;;;;;;3.30;1.95;;;;;;;;;;4930055;29;20141;-85
2024/01/02 03:31:10;;;;;;;3.40;1.75;;;;;;;;;;4933294;29;20040;-84
2024/01/02 03:33:36;;;;;;;3.08;1.63;;;;;;;;;;4933317;29;20043;-84
2024/01/02 03:36:01;;;;;;;3.33;1.83;;;;;;;;;;4929901;29;20024;-84
2024/01/02 03:38:27;;;;;;;4.18;1.75;;;;;;;;;;4929078;29;20497;-84
2024/01/02 03:40:52;;;;;;;3.35;1.75;;;;;;;;;;4943930;29;20031;-84
2024/01/02 03:43:18;;;;;;;2.83;1.48;;;;;;;;;;4929767;29;20020;-84
2024/01/02 03:45:43;;;;;;;2.80;1.60;;;;;;;;;;4933392;29;20486;-85
2024/01/02 03:48:09;;;;;;;2.38;1.60;;;;;;;;;;4930679;29;20032;-84
2024/01/02 03:50:34;;;;;;;3.17;1.83;;;;;;;;;;4930042;29;20039;-85
2024/01/02 03:53:00;;;;;;;3.40;1.67;;;;;;;;;;4925210;29;20119;-85
2024/01/02 03:55:25;;;;;;;2.95;1.70;;;;;;;;;;4928475;29;20054;-84
2024/01/02 03:57:50;;;;;;;2.38;1.45;;;;;;;;;;4930212;29;20059;-84
2024/01/02 04:00:16;;;;;;;2.08;1.40;;;;;;;;;;4930071;29;20040;-84
2024/01/02 04:02:42;;;;;;;2.05;1.30;;;;;;;;;;4927622;29;20047;-84
2024/01/02 04:05:08;;;;;;;2.75;1.70;;;;;;;;;;4915819;29;20123;-83
2024/01/02 04:07:33;;;;;;;2.80;1.60;;;;;;;;;;4927020;29;20047;-84
2024/01/02 04:09:59;;;;;;;2.75;1.70;;;;;;;;;;4926963;29;20126;-84
2024/01/02 04:12:24;;;;;;;2.85;1.50;;;;;;;;;;4927643;29;20039;-83
2024/01/02 04:14:50;;;;;;;2.30;1.35;;;;;;;;;;4927819;29;20166;-84
2024/01/02 04:17:15;;;;;;;1.85;1.35;;;;;;;;;;4924056;29;20552;-84
2024/01/02 04:19:41;;;;;;;2.80;1.58;;;;;;;;;;4930522;29;20092;-83
2024/01/02 04:22:06;;;;;;;3.50;1.30;;;;;;;;;;4924282;29;20498;-83
2024/01/02 04:24:32;;;;;;;4.15;1.80;;;;;;;;;;4925164;29;20040;-83
2024/01/02 04:26:58;;;;;;;2.78;1.60;;;;;;;;;;4926305;29;20513;-85
2024/01/02 04:29:23;;;;;;;4.63;1.90;;;;;;;;;;4929686;29;20035;-85
2024/01/02 04:31:49;;;;;;;3.95;1.90;;;;;;;;;;4928863;29;20036;-85
2024/01/02 04:34:14;;;;;;;2.95;1.52;;;;;;;;;;4928214;29;20506;-85
2024/01/02 04:36:41;;;;;;;4.35;1.38;;;;;;;;;;4923102;29;20074;-84
2024/01/02 04:39:07;;;;;;;1.70;1.30;;;;;;;;;;4926635;29;20039;-84
2024/01/02 04:41:33;;;;;;;2.10;1.40;;;;;;;;;;4931867;29;20030;-84
2024/01/02 04:43:58;;;;;;;2.22;1.33;;;;;;;;;;4923101;29;20130;-84
2024/01/02 04:46:23;;;;;;;2.08;1.20;;;;;;;;;;4931120;29;20020;-84
2024/01/02 04:48:49;;;;;;;2.33;1.40;;;;;;;;;;4924177;29;20036;-84
2024/01/02 04:51:14;;;;;;;4.28;1.50;;;;;;;;;;4924107;29;20510;-84
2024/01/02 04:53:40;;;;;;;2.85;1.23;;;;;;;;;;4929145;29;20032;-83
2024/01/02 04:56:06;;;;;;;1.85;1.10;;;;;;;;;;4924928;28;20036;-84
2024/01/02 04:58:32;;;;;;;3.03;1.60;;;;;;;;;;4923580;29;20115;-85
2024/01/02 05:00:57;;;;;;;2.22;1.20;;;;;;;;;;4930281;29;20074;-84
2024/01/02 05:03:23;;;;;;;2.22;1.40;;;;;;;;;;4928804;29;20039;-84
2024/01/02 05:05:48;;;;;;;1.63;1.05;;;;;;;;;;4927622;29;20032;-83
2024/01/02 05:08:14;;;;;;;1.77;1.20;;;;;;;;;;4930146;29;20036;-83
2024/01/02 05:10:39;;;;;;;2.00;1.10;;;;;;;;;;4928187;29;20171;-83
2024/01/02 05:13:05;;;;;;;3.05;1.48;;;;;;;;;;4929880;29;20051;-85
2024/01/02 05:15:30;;;;;;;2.97;1.45;;;;;;;;;;4929572;29;20120;-85
2024/01/02 05:17:56;;;;;;;2.55;1.40;;;;;;;;;;4930117;29;20040;-84
2024/01/02 05:20:21;;;;;;;2.97;1.50;;;;;;;;;;4929760;29;20028;-84
2024/01/02 05:22:47;;;;;;;3.58;1.25;;;;;;;;;;4940472;29;20060;-84
2024/01/02 05:25:12;;;;;;;2.70;1.27;;;;;;;;;;4942132;29;20059;-84
2024/01/02 05:27:38;;;;;;;5.15;1.40;;;;;;;;;;4934250;29;20048;-85
2024/01/02 05:30:04;;;;;;;1.33;0.93;;;;;;;;;;4930495;29;20099;-84
2024/01/02 05:32:29;;;;;;;2.00;1.15;;;;;;;;;;4931972;29;20036;-85
2024/01/02 05:34:55;;;;;;;1.67;0.90;;;;;;;;;;4930560;29;20036;-85
2024/01/02 05:37:20;;;;;;;1.85;0.90;;;;;;;;;;4931047;29;20040;-85
2024/01/02 05:39:46;;;;;;;1.73;1.05;;;;;;;;;;4934810;29;20044;-85
2024/01/02 05:42:11;;;;;;;4.32;1.48;;;;;;;;;;4931053;29;20047;-85
2024/01/02 05:44:37;;;;;;;2.10;1.30;;;;;;;;;;4930102;29;20048;-84
2024/01/02 05:47:02;;;;;;;2.38;1.35;;;;;;;;;;4936086;29;20036;-84
2024/01/02 05:49:28;;;;;;;2.33;1.10;;;;;;;;;;4932988;29;20118;-84
2024/01/02 05:51:53;;;;;;;2.15;1.30;;;;;;;;;;4930624;29;20095;-84
2024/01/02 05:54:19;;;;;;;2.15;1.40;;;;;;;;;;4930765;29;20043;-85
2024/01/02 05:56:44;;;;;;;3.63;1.90;;;;;;;;;;4929799;29;19919;-84
2024/01/02 05:59:10;;;;;;;5.03;1.70;;;;;;;;;;4928140;29;20039;-84
2024/01/02 06:01:35;;;;;;;1.80;1.10;;;;;;;;;;4929359;29;20042;-84
2024/01/02 06:04:01;;;;;;;2.38;1.20;;;;;;;;;;4944303;29;20032;-84
2024/01/02 06:06:27;;;;;;;2.20;1.10;;;;;;;;;;4933612;29;20035;-84
2024/01/02 06:08:52;;;;;;;1.42;0.95;;;;;;;;;;4930674;29;20035;-85
2024/01/02 06:11:18;;;;;;;1.33;0.90;;;;;;;;;;4926460;29;20123;-85
2024/01/02 06:13:43;;;;;;;1.75;1.10;;;;;;;;;;4932982;29;20119;-85
2024/01/02 06:16:12;;;;;;;2.22;0.90;;;;;;;;;;4932195;29;20096;-85
2024/01/02 06:18:38;;;;;;;2.17;0.90;;;;;;;;;;4932369;29;20106;-84
2024/01/02 06:21:04;;;;;;;2.50;1.25;;;;;;;;;;4931931;29;21011;-85
2024/01/02 06:23:34;;;;;;;2.92;1.15;;;;;;;;;;4929443;29;20044;-85
2024/01/02 06:26:00;;;;;;;1.92;1.25;;;;;;;;;;4938005;29;20502;-86
2024/01/02 06:28:26;;;;;;;1.77;1.10;;;;;;;;;;4944690;29;20047;-84
2024/01/02 06:30:51;;;;;;;1.50;0.90;;;;;;;;;;4930313;29;20040;-84
2024/01/02 06:33:17;;;;;;;2.08;1.10;;;;;;;;;;4925997;29;20028;-84
2024/01/02 06:35:43;;;;;;;3.38;1.20;;;;;;;;;;4929148;29;20027;-85
2024/01/02 06:38:11;;;;;;;3.20;1.40;;;;;;;;;;4928074;29;20036;-83
2024/01/02 06:40:37;;;;;;;3.03;1.20;;;;;;;;;;4933725;29;20035;-84
2024/01/02 06:43:04;;;;;;;1.80;1.17;;;;;;;;;;4927968;29;20510;-83
2024/01/02 06:45:30;;;;;;;3.10;1.25;;;;;;;;;;4927333;29;20031;-83
2024/01/02 06:47:56;;;;;;;2.10;1.27;;;;;;;;;;4931034;29;20036;-83
2024/01/02 06:50:21;;;;;;;2.42;1.50;;;;;;;;;;4924689;29;20036;-84
2024/01/02 06:52:47;;;;;;;2.20;1.33;;;;;;;;;;4927092;29;20126;-82
2024/01/02 06:55:12;;;;;;;2.90;1.50;;;;;;;;;;4928951;29;20028;-84
2024/01/02 06:57:39;;;;;;;2.97;1.65;;;;;;;;;;4924881;29;20040;-84
2024/01/02 07:00:06;;;;;;;2.20;1.38;;;;;;;;;;4927171;29;20040;-83
2024/01/02 07:02:32;;;;;;;3.20;1.60;;;;;;;;;;4927352;29;20518;-83
2024/01/02 07:04:59;;;;;;;3.83;1.65;;;;;;;;;;4927110;29;20044;-82
2024/01/02 07:07:24;;;;;;;3.00;1.55;;;;;;;;;;4929458;29;20032;-83
2024/01/02 07:09:50;;;;;;;2.28;1.40;;;;;;;;;;4932300;29;20123;-82
2024/01/02 07:12:17;;;;;;;2.55;1.40;;;;;;;;;;4930418;29;20119;-83
2024/01/02 07:14:43;;;;;;;2.78;1.42;;;;;;;;;;4930151;29;20498;-84
2024/01/02 07:17:09;;;;;;;2.65;1.20;;;;;;;;;;4931962;29;20047;-85
2024/01/02 07:19:34;;;;;;;5.55;1.60;;;;;;;;;;4940225;29;20036;-84
2024/01/02 07:22:00;;;;;;;3.90;1.55;;;;;;;;;;4938093;29;20043;-85
2024/01/02 07:24:26;;;;;;;2.17;1.25;;;;;;;;;;4927816;29;20054;-85
2024/01/02 07:26:51;;;;;;;2.17;1.20;;;;;;;;;;4927686;29;20398;-85
2024/01/02 07:29:17;;;;;;;2.90;1.75;;;;;;;;;;4935924;29;20036;-84
2024/01/02 07:31:42;;;;;;;2.28;1.20;;;;;;;;;;4935574;29;20115;-84
2024/01/02 07:34:08;;;;;;;3.17;1.40;;;;;;;;;;4928756;29;20588;-84
2024/01/02 07:36:33;;;;;;;1.75;0.93;;;;;;;;;;4928473;29;20071;-84
2024/01/02 07:38:59;;;;;;;1.90;1.27;;;;;;;;;;4925314;29;20240;-85
2024/01/02 07:41:24;;;;;;;1.13;0.95;;;;;;;;;;4930287;29;20036;-86
2024/01/02 07:43:50;;;;;;;2.20;1.30;;;;;;;;;;4931739;29;20044;-85
2024/01/02 07:46:18;;;;;;;3.25;1.60;;;;;;;;;;4929862;29;20038;-84
2024/01/02 07:48:45;;;;;;;2.42;1.33;;;;;;;;;;4928395;29;20043;-85
2024/01/02 07:51:10;;;;;;;3.70;1.50;;;;;;;;;;4921917;29;20044;-85
2024/01/02 07:53:36;;;;;;;3.40;1.20;;;;;;;;;;4933126;29;20040;-85
2024/01/02 07:56:05;;;;;;;2.60;1.40;;;;;;;;;;4929666;29;20027;-85
2024/01/02 07:58:30;;;;;;;2.08;1.40;;;;;;;;;;4928551;29;20039;-85
2024/01/02 08:00:56;;;;;;;1.88;1.20;;;;;;;;;;4932061;29;20036;-85
2024/01/02 08:03:21;;;;;;;2.63;1.40;;;;;;;;;;4928097;29;20032;-85
2024/01/02 08:05:47;;;;;;;3.40;1.90;;;;;;;;;;4927917;29;20394;-86
2024/01/02 08:08:12;;;;;;;2.70;1.60;;;;;;;;;;4931348;29;20064;-86
2024/01/02 08:10:38;;;;;;;2.13;1.30;;;;;;;;;;4931097;29;20464;-85
2024/01/02 08:13:03;;;;;;;4.15;1.80;;;;;;;;;;4926577;29;20039;-85
2024/01/02 08:15:30;;;;;;;5.45;1.90;;;;;;;;;;4927390;29;20032;-84
2024/01/02 08:17:57;;;;;;;2.50;1.30;;;;;;;;;;4926249;29;20035;-84
2024/01/02 08:20:22;;;;;;;3.55;1.40;;;;;;;;;;4928315;29;20285;-85
2024/01/02 08:22:48;;;;;;;3.45;1.40;;;;;;;;;;4929121;29;20446;-87
2024/01/02 08:25:13;;;;;;;3.05;1.55;;;;;;;;;;4925748;29;20119;-86
2024/01/02 08:27:39;;;;;;;3.42;1.40;;;;;;;;;;4923907;29;20090;-86
2024/01/02 08:30:05;;;;;;;1.42;0.93;;;;;;;;;;4906875;29;20490;-85
2024/01/02 08:32:31;;;;;;;2.03;1.20;;;;;;;;;;4929516;29;20040;-85
2024/01/02 08:34:57;;;;;;;3.60;1.50;;;;;;;;;;4930839;29;20039;-86
2024/01/02 08:37:22;;;;;;;2.13;1.20;;;;;;;;;;4924727;29;20032;-85
2024/01/02 08:39:48;;;;;;;2.20;1.20;;;;;;;;;;4925884;29;20059;-85
2024/01/02 08:42:14;;;;;;;1.75;1.00;;;;;;;;;;4924820;29;20044;-86
2024/01/02 08:44:40;;;;;;;2.25;1.05;;;;;;;;;;4929256;29;20051;-86
2024/01/02 08:47:05;;;;;;;2.90;1.10;;;;;;;;;;4924244;29;20039;-86
2024/01/02 08:49:31;;;;;;;2.47;1.10;;;;;;;;;;4932021;29;20453;-86
2024/01/02 08:51:56;;;;;;;1.50;1.00;;;;;;;;;;4933367;29;20486;-83
2024/01/02 08:54:22;;;;;;;1.58;1.05;;;;;;;;;;4928361;29;20123;-86
2024/01/02 08:56:48;;;;;;;2.00;1.00;;;;;;;;;;4931512;29;20036;-88
2024/01/02 08:59:13;;;;;;;1.90;1.10;;;;;;;;;;4924793;29;20110;-86
2024/01/02 09:01:39;;;;;;;2.28;1.00;;;;;;;;;;4924690;29;20046;-86
2024/01/02 09:04:04;;;;;;;5.78;1.30;;;;;;;;;;4924703;29;20036;-85
2024/01/02 09:06:30;;;;;;;2.95;1.23;;;;;;;;;;4929037;29;20067;-85
2024/01/02 09:08:58;;;;;;;3.00;1.25;;;;;;;;;;4929526;29;20149;-85
2024/01/02 09:11:24;;;;;;;2.13;1.20;;;;;;;;;;4929975;29;20447;-86
2024/01/02 09:13:50;;;;;;;3.20;1.08;;;;;;;;;;4931320;29;20073;-86
2024/01/02 09:16:15;;;;;;;1.30;0.90;;;;;;;;;;4932976;29;20028;-86
2024/01/02 09:18:41;;;;;;;1.75;1.00;;;;;;;;;;4936017;29;20048;-86
2024/01/02 09:21:07;;;;;;;1.80;1.00;;;;;;;;;;4937244;29;20123;-86
2024/01/02 09:23:34;;;;;;;1.77;1.08;;;;;;;;;;4931004;29;20043;-84
2024/01/02 09:26:01;;;;;;;2.80;1.38;;;;;;;;;;4933493;29;20462;-86
2024/01/02 09:28:29;;;;;;;4.35;1.30;;;;;;;;;;4930490;29;20039;-85
2024/01/02 09:30:54;;;;;;;1.77;1.02;;;;;;;;;;4924129;29;20048;-85
2024/01/02 09:33:21;;;;;;;2.83;0.95;;;;;;;;;;4925094;29;20147;-85
2024/01/02 09:35:47;;;;;;;1.85;1.05;;;;;;;;;;4925404;29;20038;-85
2024/01/02 09:38:15;;;;;;;2.72;1.38;;;;;;;;;;4929426;29;20082;-86
2024/01/02 09:41:11;;;;;;;1.70;0.90;;;;;;;;;;4925941;29;20047;-89
2024/01/02 09:43:55;;;;;;;2.95;1.55;;;;;;;;;;4921717;29;20044;-87
2024/01/02 09:46:53;;;;;;;2.80;1.70;;;;;;;;;;4926202;29;20039;-88
2024/01/02 09:49:35;;;;;;;3.50;1.60;;;;;;;;;;4924264;29;20036;-85
2024/01/02 09:52:17;;;;;;;3.35;1.90;;;;;;;;;;4930121;29;20102;-85
2024/01/02 09:55:03;;;;;;;2.17;1.20;;;;;;;;;;4927825;29;20414;-85
2024/01/02 09:57:37;;;;;;;4.15;1.10;;;;;;;;;;4931749;29;20035;-85
2024/01/02 10:00:13;;;;;;;1.75;1.00;;;;;;;;;;4929734;29;20498;-84
2024/01/02 10:03:05;;;;;;;2.10;1.20;;;;;;;;;;4927692;29;20036;-84
2024/01/02 10:05:46;;;;;;;1.40;0.90;;;;;;;;;;4927922;29;20507;-85
2024/01/02 10:08:19;;;;;;;2.00;1.25;;;;;;;;;;4928990;29;20513;-85
2024/01/02 10:11:15;;;;;;;2.45;1.30;;;;;;;;;;4928153;29;20417;-85
2024/01/02 10:14:13;;;;;;;2.33;1.08;;;;;;;;;;4925410;29;20108;-85
2024/01/02 10:17:10;;;;;;;3.25;1.30;;;;;;;;;;4937399;28;20054;-85
2024/01/02 10:19:53;;;;;;;1.75;0.90;;;;;;;;;;4917608;29;20058;-84
2024/01/02 10:22:25;;;;;;;1.70;0.98;;;;;;;;;;4932762;29;20601;-85
2024/01/02 10:25:05;;;;;;;2.22;0.90;;;;;;;;;;4917898;29;20107;-85
2024/01/02 10:27:43;;;;;;;1.80;1.05;;;;;;;;;;4934083;29;20415;-85
2024/01/02 10:30:11;;;;;;;2.22;1.20;;;;;;;;;;4929429;29;20134;-85
2024/01/02 10:32:43;;;;;;;2.40;1.08;;;;;;;;;;4936844;29;20043;-85
2024/01/02 10:35:10;;;;;;;5.38;1.23;;;;;;;;;;4931760;29;20047;-86
2024/01/02 10:37:41;;;;;;;1.45;0.90;;;;;;;;;;4934314;29;20042;-85
2024/01/02 10:40:12;;;;;;;3.17;0.85;;;;;;;;;;4934319;29;20103;-85
2024/01/02 10:43:25;;;;;;;2.25;1.10;;;;;;;;;;4927949;29;20753;-85
2024/01/02 10:46:05;;;;;;;1.48;0.90;;;;;;;;;;4944539;29;20063;-84
2024/01/02 10:48:40;;;;;;;1.50;1.00;;;;;;;;;;4932805;29;20028;-85
2024/01/02 10:51:10;;;;;;;2.47;1.10;;;;;;;;;;4927856;29;20125;-85
2024/01/02 10:53:56;;;;;;;3.15;1.33;;;;;;;;;;4934171;28;20035;-85
2024/01/02 10:56:41;;;;;;;1.08;0.80;;;;;;;;;;4912856;29;20114;-84
2024/01/02 10:59:12;;;;;;;2.00;1.00;;;;;;;;;;4931360;29;20047;-85
2024/01/02 11:01:43;;;;;;;2.50;0.90;;;;;;;;;;4931638;29;20530;-86
2024/01/02 11:04:21;;;;;;;4.15;1.30;;;;;;;;;;4932365;29;20039;-85
2024/01/02 11:07:06;;;;;;;2.05;1.33;;;;;;;;;;4912141;29;20048;-85
2024/01/02 11:09:45;;;;;;;2.75;1.10;;;;;;;;;;4929518;29;20040;-85
2024/01/02 11:12:12;;;;;;;1.80;1.00;;;;;;;;;;4926769;29;20035;-86
2024/01/02 11:14:41;;;;;;;2.08;1.02;;;;;;;;;;4928777;29;20035;-86
2024/01/02 11:17:07;;;;;;;2.72;1.20;;;;;;;;;;4928313;29;20127;-86
2024/01/02 11:20:06;;;;;;;2.00;1.20;;;;;;;;;;4935998;29;20035;-85
2024/01/02 11:22:39;;;;;;;2.15;1.10;;;;;;;;;;4937932;29;20047;-86
2024/01/02 11:25:09;;;;;;;2.50;1.30;;;;;;;;;;4929423;29;20039;-86
2024/01/02 11:27:37;;;;;;;3.42;1.30;;;;;;;;;;4945419;29;20063;-86
2024/01/02 11:30:05;;;;;;;1.98;1.10;;;;;;;;;;4934270;29;20040;-84
2024/01/02 11:32:47;;;;;;;1.80;1.05;;;;;;;;;;4929958;29;20040;-86
2024/01/02 11:35:12;;;;;;;3.88;1.13;;;;;;;;;;4930228;29;20051;-85
2024/01/02 11:37:40;;;;;;;3.00;1.40;;;;;;;;;;4934056;29;20032;-85
2024/01/02 11:40:25;;;;;;;1.02;0.88;;;;;;;;;;4952049;28;20047;-84
2024/01/02 11:43:22;;;;;;;4.40;1.45;;;;;;;;;;4930831;29;20036;-87
2024/01/02 11:45:56;;;;;;;1.65;1.08;;;;;;;;;;4934027;29;20195;-85
2024/01/02 11:48:47;;;;;;;2.50;1.40;;;;;;;;;;4930881;29;20032;-85
2024/01/02 11:51:23;;;;;;;2.05;1.20;;;;;;;;;;4931588;29;20394;-85
2024/01/02 11:54:18;;;;;;;2.15;1.15;;;;;;;;;;4928894;29;20040;-85
2024/01/02 11:56:44;;;;;;;1.75;1.10;;;;;;;;;;4927024;29;20501;-85
2024/01/02 11:59:31;;;;;;;1.23;0.80;;;;;;;;;;4929545;29;20042;-84
2024/01/02 12:02:12;;;;;;;1.33;0.82;;;;;;;;;;4926404;29;20047;-85
2024/01/02 12:04:48;;;;;;;2.28;1.00;;;;;;;;;;4930061;29;20076;-84
2024/01/02 12:07:25;;;;;;;1.58;0.82;;;;;;;;;;4927365;29;20035;-84
2024/01/02 12:09:52;;;;;;;1.67;0.90;;;;;;;;;;4932065;29;20910;-84
2024/01/02 12:12:42;;;;;;;1.83;1.08;;;;;;;;;;4928780;29;20469;-85
2024/01/02 12:15:29;;;;;;;3.10;1.20;;;;;;;;;;4928815;29;20044;-85
2024/01/02 12:18:06;;;;;;;1.67;1.10;;;;;;;;;;4926839;29;20040;-88
2024/01/02 12:20:45;;;;;;;4.25;1.10;;;;;;;;;;4933030;29;20042;-87
2024/01/02 12:23:11;;;;;;;1.83;0.90;;;;;;;;;;4917875;29;20112;-85
2024/01/02 12:25:39;;;;;;;1.42;1.02;;;;;;;;;;4932181;29;20063;-84
2024/01/02 12:28:06;;;;;;;2.17;1.00;;;;;;;;;;4940119;29;20039;-84
2024/01/02 12:30:47;;;;;;;2.15;1.30;;;;;;;;;;4937530;29;20035;-84
2024/01/02 12:33:42;;;;;;;2.20;1.20;;;;;;;;;;4934017;29;20043;-84
2024/01/02 12:36:36;;;;;;;1.65;1.08;;;;;;;;;;4935130;29;20055;-86
2024/01/02 12:39:08;;;;;;;2.03;1.15;;;;;;;;;;4933826;29;20040;-85
2024/01/02 12:41:50;;;;;;;2.40;1.02;;;;;;;;;;4937395;29;20031;-85
2024/01/02 12:44:18;;;;;;;1.88;1.20;;;;;;;;;;4934031;29;20036;-85
2024/01/02 12:46:48;;;;;;;1.38;0.90;;;;;;;;;;4936256;28;20039;-85
2024/01/02 12:49:23;;;;;;;1.60;0.98;;;;;;;;;;4934948;29;20032;-86
2024/01/02 12:51:50;;;;;;;2.15;1.17;;;;;;;;;;4933090;29;20527;-86
2024/01/02 12:54:20;;;;;;;2.08;1.15;;;;;;;;;;4939270;29;20036;-84
2024/01/02 12:56:54;;;;;;;2.50;1.40;;;;;;;;;;4931811;29;20039;-87
2024/01/02 12:59:20;;;;;;;2.97;1.45;;;;;;;;;;4930221;29;20113;-85
2024/01/02 13:01:46;;;;;;;2.13;1.30;;;;;;;;;;4927112;29;20036;-86
2024/01/02 13:04:15;;;;;;;3.67;1.50;;;;;;;;;;4930344;29;20046;-87
2024/01/02 13:06:43;;;;;;;2.35;1.10;;;;;;;;;;4929200;29;20462;-86
2024/01/02 13:09:10;;;;;;;2.00;0.90;;;;;;;;;;4930199;29;20058;-86
2024/01/02 13:11:35;;;;;;;2.00;1.15;;;;;;;;;;4925994;29;20059;-86
2024/01/02 13:14:01;;;;;;;1.67;1.10;;;;;;;;;;4926614;29;20042;-85
2024/01/02 13:16:27;;;;;;;1.77;0.70;;;;;;;;;;4912550;29;20425;-85
2024/01/02 13:18:53;;;;;;;3.05;1.10;;;;;;;;;;4931070;29;20130;-84
2024/01/02 13:21:19;;;;;;;2.80;0.90;;;;;;;;;;4928264;29;20063;-87
2024/01/02 13:23:55;;;;;;;1.40;1.05;;;;;;;;;;4947556;28;20399;-87
2024/01/02 13:26:25;;;;;;;1.27;0.90;;;;;;;;;;4932195;29;20043;-87
2024/01/02 13:28:54;;;;;;;1.33;0.82;;;;;;;;;;4932966;29;20036;-86
2024/01/02 13:31:30;;;;;;;1.60;0.93;;;;;;;;;;4930901;29;20513;-87
2024/01/02 13:33:56;;;;;;;1.23;0.88;;;;;;;;;;4932849;29;20122;-86
2024/01/02 13:36:24;;;;;;;3.65;2.00;;;;;;;;;;4931408;29;20115;-86
2024/01/02 13:38:50;;;;;;;1.80;1.08;;;;;;;;;;4932417;29;20043;-87
2024/01/02 13:41:15;;;;;;;2.72;1.00;;;;;;;;;;4927985;29;20125;-86
2024/01/02 13:43:42;;;;;;;1.95;1.10;;;;;;;;;;4934419;29;20051;-86
2024/01/02 13:46:12;;;;;;;2.38;1.10;;;;;;;;;;4931373;29;20122;-87
2024/01/02 13:49:01;;;;;;;1.30;0.90;;;;;;;;;;4930585;29;20043;-87
2024/01/02 13:51:29;;;;;;;2.95;1.27;;;;;;;;;;4931303;29;20036;-87
2024/01/02 13:54:02;;;;;;;1.73;1.15;;;;;;;;;;4936528;29;20086;-87
2024/01/02 13:56:32;;;;;;;3.07;1.10;;;;;;;;;;4931707;29;20118;-87
2024/01/02 13:59:06;;;;;;;2.47;1.00;;;;;;;;;;4928837;29;20044;-85
2024/01/02 14:01:36;;;;;;;2.78;1.73;;;;;;;;;;4931279;29;20042;-87
2024/01/02 14:04:03;;;;;;;3.50;1.65;;;;;;;;;;4931158;29;20525;-88
2024/01/02 14:06:36;;;;;;;2.42;1.20;;;;;;;;;;4931630;29;20036;-87
2024/01/02 14:09:19;;;;;;;2.28;1.02;;;;;;;;;;4932646;28;20039;-88
2024/01/02 14:11:51;;;;;;;5.70;2.70;;;;;;;;;;4934223;29;20032;-87
2024/01/02 14:14:27;;;;;;;18.30;6.43;;;;;;;;;;4931167;29;20039;-89
2024/01/02 14:17:08;;;;;;;14.10;5.68;;;;;;;;;;4929913;29;20054;-86
2024/01/02 14:19:43;;;;;;;4.18;1.98;;;;;;;;;;4926069;29;20043;-86
2024/01/02 14:22:27;;;;;;;5.15;1.45;;;;;;;;;;4927024;29;20028;-86
2024/01/02 14:25:20;;;;;;;2.20;1.38;;;;;;;;;;4930493;29;20044;-86
2024/01/02 14:28:07;;;;;;;2.67;1.30;;;;;;;;;;4930464;29;20032;-87
2024/01/02 14:30:36;;;;;;;2.83;1.35;;;;;;;;;;4925563;29;20043;-88
2024/01/02 14:33:23;;;;;;;1.50;1.02;;;;;;;;;;4928470;29;20043;-86
2024/01/02 14:36:17;;;;;;;2.10;1.25;;;;;;;;;;4926196;29;20044;-87
2024/01/02 14:39:01;;;;;;;1.85;1.10;;;;;;;;;;4930626;29;20044;-89
2024/01/02 14:41:42;;;;;;;2.25;1.30;;;;;;;;;;4927554;29;20486;-87
2024/01/02 14:44:24;;;;;;;1.70;1.08;;;;;;;;;;4928922;29;20040;-85
2024/01/02 14:47:21;;;;;;;1.65;0.90;;;;;;;;;;4931341;29;20106;-85
2024/01/02 14:49:53;;;;;;;2.03;1.10;;;;;;;;;;4933437;29;20039;-83
2024/01/02 14:53:05;;;;;;;2.72;1.58;;;;;;;;;;4931292;29;20533;-86
2024/01/02 14:55:42;;;;;;;1.80;1.02;;;;;;;;;;4937041;29;20075;-87
2024/01/02 14:58:22;;;;;;;2.65;1.10;;;;;;;;;;4931393;29;20062;-83